PWSweather.com
Personal Weather Stations
Station Observations
REUBENS
Camas Prairie, Reubens, ID

Camas PrairieReubens, ID

Lat: 46.35417, Lon: -116.53167

Elevation: 3480

Station Type: Davis VantagePro 2

http://www.theobrienranch.com/wx/wx.htm

High Low Average
Temperature 48.9°F9.4°C 34.4°F1.3°C 42.2°F5.7°C
Dew Point 36.1°F2.3°C 25.4°F-3.7°C 31.5°F-0.3°C
Winds 10.4 mph 16.7 kmh Calm Calm 4.0 mph S6.4 kmh S
Wind Gusts 14.0 mph22.5 kmh -- 6.0 mph9.7 kmh
Humidity 78% 55% 66%
Pressure 30.07 in1018.3 mb 29.98 in1015.2 mb -
Precipitation 0.00 in0.0 mm - -
Hour Temp Dew Point Humidity Winds Wind Gusts Pressure Precip Precip Rate Daily Precip Total
12:00 AM 41.9°F5.5°C 25.6°F-3.6°C 52% 11.3 mph W18.2 kmh W 13.0 mph20.9 kmh 30.00 in1015.9 mb 0.00 in0.0 mm 0.00 in/hr0.0 mm/hr 0.00 in0.0 mm
12:30 AM 42.0°F5.6°C 25.6°F-3.6°C 52% 12.6 mph WNW20.3 kmh WNW 17.0 mph27.4 kmh 30.01 in1016.3 mb 0.00 in0.0 mm 0.00 in/hr0.0 mm/hr 0.00 in0.0 mm
01:00 AM 40.3°F4.6°C 25.4°F-3.7°C 55% 9.5 mph WNW15.3 kmh WNW 13.0 mph20.9 kmh 30.02 in1016.6 mb 0.00 in0.0 mm 0.00 in/hr0.0 mm/hr 0.00 in0.0 mm
01:30 AM 40.0°F4.4°C 25.5°F-3.6°C 56% 10.4 mph W16.7 kmh W 12.0 mph19.3 kmh 30.02 in1016.6 mb 0.00 in0.0 mm 0.00 in/hr0.0 mm/hr 0.00 in0.0 mm
02:00 AM 39.0°F3.9°C 25.5°F-3.6°C 58% 4.2 mph W6.8 kmh W 5.0 mph8.0 kmh 30.02 in1016.6 mb 0.00 in0.0 mm 0.00 in/hr0.0 mm/hr 0.00 in0.0 mm
02:30 AM 36.4°F2.4°C 25.7°F-3.5°C 65% 4.9 mph WSW7.9 kmh WSW 6.0 mph9.7 kmh 30.05 in1017.6 mb 0.00 in0.0 mm 0.00 in/hr0.0 mm/hr 0.00 in0.0 mm
03:00 AM 36.6°F2.6°C 25.6°F-3.6°C 64% 4.7 mph WSW7.6 kmh WSW 6.0 mph9.7 kmh 30.04 in1017.3 mb 0.00 in0.0 mm 0.00 in/hr0.0 mm/hr 0.00 in0.0 mm
03:30 AM 35.1°F1.7°C 26.3°F-3.2°C 70% 6.7 mph SW10.8 kmh SW 10.0 mph16.1 kmh 30.05 in1017.6 mb 0.00 in0.0 mm 0.00 in/hr0.0 mm/hr 0.00 in0.0 mm
04:00 AM 34.4°F1.3°C 26.6°F-3.0°C 73% 7.8 mph WSW12.6 kmh WSW 10.0 mph16.1 kmh 30.05 in1017.6 mb 0.00 in0.0 mm 0.00 in/hr0.0 mm/hr 0.00 in0.0 mm
04:30 AM 35.4°F1.9°C 26.6°F-3.0°C 70% 5.2 mph W8.4 kmh W 6.0 mph9.7 kmh 30.05 in1017.6 mb 0.00 in0.0 mm 0.00 in/hr0.0 mm/hr 0.00 in0.0 mm
05:00 AM 35.3°F1.8°C 26.5°F-3.1°C 70% 6.1 mph W9.8 kmh W 7.0 mph11.3 kmh 30.05 in1017.6 mb 0.00 in0.0 mm 0.00 in/hr0.0 mm/hr 0.00 in0.0 mm
05:30 AM 35.4°F1.9°C 26.9°F-2.8°C 71% 5.2 mph W8.4 kmh W 6.0 mph9.7 kmh 30.05 in1017.6 mb 0.00 in0.0 mm 0.00 in/hr0.0 mm/hr 0.00 in0.0 mm
06:00 AM 35.3°F1.8°C 26.5°F-3.1°C 70% 5.7 mph W9.2 kmh W 6.0 mph9.7 kmh 30.06 in1017.9 mb 0.00 in0.0 mm 0.00 in/hr0.0 mm/hr 0.00 in0.0 mm
06:30 AM 35.6°F2.0°C 26.4°F-3.1°C 69% 3.7 mph W6.0 kmh W 4.0 mph6.4 kmh 30.06 in1017.9 mb 0.00 in0.0 mm 0.00 in/hr0.0 mm/hr 0.00 in0.0 mm
07:00 AM 36.5°F2.5°C 27.3°F-2.6°C 69% 3.9 mph W6.3 kmh W 5.0 mph8.0 kmh 30.07 in1018.3 mb 0.00 in0.0 mm 0.00 in/hr0.0 mm/hr 0.00 in0.0 mm
07:30 AM 37.1°F2.8°C 28.9°F-1.7°C 72% 3.7 mph W6.0 kmh W 5.0 mph8.0 kmh 30.07 in1018.3 mb 0.00 in0.0 mm 0.00 in/hr0.0 mm/hr 0.00 in0.0 mm
08:00 AM 39.1°F3.9°C 28.7°F-1.8°C 66% 4.3 mph W6.9 kmh W 5.0 mph8.0 kmh 30.07 in1018.3 mb 0.00 in0.0 mm 0.00 in/hr0.0 mm/hr 0.00 in0.0 mm
08:30 AM 41.4°F5.2°C 29.7°F-1.3°C 63% 2.9 mph W4.7 kmh W 4.0 mph6.4 kmh 30.07 in1018.3 mb 0.00 in0.0 mm 0.00 in/hr0.0 mm/hr 0.00 in0.0 mm
09:00 AM 43.0°F6.1°C 30.1°F-1.1°C 60% 1.3 mph WNW2.1 kmh WNW 3.0 mph4.8 kmh 30.06 in1017.9 mb 0.00 in0.0 mm 0.00 in/hr0.0 mm/hr 0.00 in0.0 mm
09:30 AM 43.3°F6.3°C 28.6°F-1.9°C 56% 6.0 mph WNW9.7 kmh WNW 7.0 mph11.3 kmh 30.06 in1017.9 mb 0.00 in0.0 mm 0.00 in/hr0.0 mm/hr 0.00 in0.0 mm
10:00 AM 45.4°F7.4°C 30.6°F-0.8°C 56% 4.2 mph WNW6.8 kmh WNW 5.0 mph8.0 kmh 30.05 in1017.6 mb 0.00 in0.0 mm 0.00 in/hr0.0 mm/hr 0.00 in0.0 mm
10:30 AM 43.8°F6.6°C 30.4°F-0.9°C 59% 10.0 mph WNW16.1 kmh WNW 14.0 mph22.5 kmh 30.07 in1018.3 mb 0.00 in0.0 mm 0.00 in/hr0.0 mm/hr 0.00 in0.0 mm
11:00 AM 46.1°F7.8°C 31.7°F-0.2°C 57% 7.4 mph WNW11.9 kmh WNW 10.0 mph16.1 kmh 30.06 in1017.9 mb 0.00 in0.0 mm 0.00 in/hr0.0 mm/hr 0.00 in0.0 mm
11:30 AM 46.9°F8.3°C 32.9°F0.5°C 58% 1.8 mph NW2.9 kmh NW 3.0 mph4.8 kmh 30.06 in1017.9 mb 0.00 in0.0 mm 0.00 in/hr0.0 mm/hr 0.00 in0.0 mm
12:00 PM 44.7°F7.1°C 31.6°F-0.2°C 60% 8.1 mph W13.0 kmh W 10.0 mph16.1 kmh 30.07 in1018.3 mb 0.00 in0.0 mm 0.00 in/hr0.0 mm/hr 0.00 in0.0 mm
12:30 PM 46.6°F8.1°C 33.4°F0.8°C 60% 6.8 mph WNW10.9 kmh WNW 11.0 mph17.7 kmh 30.06 in1017.9 mb 0.00 in0.0 mm 0.00 in/hr0.0 mm/hr 0.00 in0.0 mm
01:00 PM 46.9°F8.3°C 31.6°F-0.2°C 55% 8.9 mph WNW14.3 kmh WNW 9.0 mph14.5 kmh 30.06 in1017.9 mb 0.00 in0.0 mm 0.00 in/hr0.0 mm/hr 0.00 in0.0 mm
01:30 PM 48.9°F9.4°C 35.2°F1.8°C 59% 4.1 mph NE6.6 kmh NE 6.0 mph9.7 kmh 30.05 in1017.6 mb 0.00 in0.0 mm 0.00 in/hr0.0 mm/hr 0.00 in0.0 mm
02:00 PM 44.1°F6.7°C 33.8°F1.0°C 67% 7.5 mph ENE12.1 kmh ENE 10.0 mph16.1 kmh 30.07 in1018.3 mb 0.00 in0.0 mm 0.00 in/hr0.0 mm/hr 0.00 in0.0 mm
02:30 PM 44.5°F6.9°C 34.2°F1.2°C 67% 4.8 mph E7.7 kmh E 10.0 mph16.1 kmh 30.06 in1017.9 mb 0.00 in0.0 mm 0.00 in/hr0.0 mm/hr 0.00 in0.0 mm
03:00 PM 45.4°F7.4°C 33.5°F0.8°C 63% 2.7 mph E4.3 kmh E 4.0 mph6.4 kmh 30.06 in1017.9 mb 0.00 in0.0 mm 0.00 in/hr0.0 mm/hr 0.00 in0.0 mm
03:30 PM 46.7°F8.2°C 33.9°F1.1°C 61% 4.6 mph NE7.4 kmh NE 5.0 mph8.0 kmh 30.05 in1017.6 mb 0.00 in0.0 mm 0.00 in/hr0.0 mm/hr 0.00 in0.0 mm
04:00 PM 46.9°F8.3°C 35.0°F1.7°C 63% Calm Calm -- 30.04 in1017.3 mb 0.00 in0.0 mm 0.00 in/hr0.0 mm/hr 0.00 in0.0 mm
04:30 PM 47.5°F8.6°C 35.5°F1.9°C 63% 4.6 mph NE7.4 kmh NE 6.0 mph9.7 kmh 30.04 in1017.3 mb 0.00 in0.0 mm 0.00 in/hr0.0 mm/hr 0.00 in0.0 mm
05:00 PM 47.1°F8.4°C 35.5°F1.9°C 64% 0.6 mph NNE1.0 kmh NNE 2.0 mph3.2 kmh 30.04 in1017.3 mb 0.00 in0.0 mm 0.00 in/hr0.0 mm/hr 0.00 in0.0 mm
05:30 PM 46.9°F8.3°C 36.1°F2.3°C 66% Calm Calm 1.0 mph1.6 kmh 30.04 in1017.3 mb 0.00 in0.0 mm 0.00 in/hr0.0 mm/hr 0.00 in0.0 mm
06:00 PM 47.3°F8.5°C 35.7°F2.1°C 64% Calm Calm -- 30.02 in1016.6 mb 0.00 in0.0 mm 0.00 in/hr0.0 mm/hr 0.00 in0.0 mm
06:30 PM 46.9°F8.3°C 34.6°F1.4°C 62% Calm Calm -- 30.02 in1016.6 mb 0.00 in0.0 mm 0.00 in/hr0.0 mm/hr 0.00 in0.0 mm
07:00 PM 47.0°F8.3°C 34.6°F1.4°C 62% Calm Calm -- 30.01 in1016.3 mb 0.00 in0.0 mm 0.00 in/hr0.0 mm/hr 0.00 in0.0 mm
07:30 PM 45.2°F7.3°C 35.6°F2.0°C 69% 2.3 mph NNE3.7 kmh NNE 3.0 mph4.8 kmh 30.01 in1016.3 mb 0.00 in0.0 mm 0.00 in/hr0.0 mm/hr 0.00 in0.0 mm
08:00 PM 44.1°F6.7°C 36.0°F2.2°C 73% 2.2 mph NNE3.5 kmh NNE 2.0 mph3.2 kmh 30.00 in1015.9 mb 0.00 in0.0 mm 0.00 in/hr0.0 mm/hr 0.00 in0.0 mm
08:30 PM 43.7°F6.5°C 36.0°F2.2°C 74% 4.5 mph SE7.2 kmh SE 5.0 mph8.0 kmh 30.00 in1015.9 mb 0.00 in0.0 mm 0.00 in/hr0.0 mm/hr 0.00 in0.0 mm
09:00 PM 43.4°F6.3°C 35.3°F1.8°C 73% 4.2 mph SE6.8 kmh SE 5.0 mph8.0 kmh 30.00 in1015.9 mb 0.00 in0.0 mm 0.00 in/hr0.0 mm/hr 0.00 in0.0 mm
09:30 PM 42.6°F5.9°C 35.3°F1.8°C 75% 4.2 mph SE6.8 kmh SE 5.0 mph8.0 kmh 30.00 in1015.9 mb 0.00 in0.0 mm 0.00 in/hr0.0 mm/hr 0.00 in0.0 mm
10:00 PM 42.3°F5.7°C 34.9°F1.6°C 75% 3.1 mph SSE5.0 kmh SSE 4.0 mph6.4 kmh 30.00 in1015.9 mb 0.00 in0.0 mm 0.00 in/hr0.0 mm/hr 0.00 in0.0 mm
10:30 PM 41.3°F5.2°C 35.0°F1.7°C 78% 3.5 mph SSE5.6 kmh SSE 5.0 mph8.0 kmh 30.00 in1015.9 mb 0.00 in0.0 mm 0.00 in/hr0.0 mm/hr 0.00 in0.0 mm
11:00 PM 41.3°F5.2°C 35.0°F1.7°C 78% 4.6 mph S7.4 kmh S 5.0 mph8.0 kmh 30.00 in1015.9 mb 0.00 in0.0 mm 0.00 in/hr0.0 mm/hr 0.00 in0.0 mm
11:30 PM 41.0°F5.0°C 34.7°F1.5°C 78% 2.1 mph S3.4 kmh S 3.0 mph4.8 kmh 30.00 in1015.9 mb 0.00 in0.0 mm 0.00 in/hr0.0 mm/hr 0.00 in0.0 mm